Time;durP1;ratioP1;P1;durP2;ratioP2;P2;SDS_P1;SDS_P2;PMS_P1;PMS_P2;Temp;Humidity;BMP_temperature;BMP_pressure;BME280_temperature;BME280_humidity;BME280_pressure;Samples;Min_cycle;Max_cycle;Signal;HPM_P1;HPM_P2
2022/06/13 00:01:43;;;;;;;6.43;1.73;;;;;;;20.97;83.72;98657.16;4844977;29;20680;-91
2022/06/13 00:04:09;;;;;;;3.10;1.67;;;;;;;21.05;83.30;98651.03;4844921;29;20181;-92
2022/06/13 00:06:35;;;;;;;3.73;1.80;;;;;;;21.14;82.42;98655.44;4844662;29;20210;-92
2022/06/13 00:09:03;;;;;;;3.37;1.83;;;;;;;21.16;82.07;98651.63;4828490;29;20208;-91
2022/06/13 00:11:38;;;;;;;3.00;1.60;;;;;;;21.35;80.98;98654.06;4845283;29;20625;-93
2022/06/13 00:14:06;;;;;;;4.60;1.70;;;;;;;21.14;82.46;98658.97;4859185;29;20196;-92
2022/06/13 00:16:52;;;;;;;3.70;1.67;;;;;;;21.26;81.70;98665.66;4844169;29;20192;-93
2022/06/13 00:19:17;;;;;;;4.23;1.73;;;;;;;21.16;82.57;98653.44;4844742;29;20176;-92
2022/06/13 00:22:02;;;;;;;;;;;;;;;;;;;;;
2022/06/13 00:24:49;;;;;;;;;;;;;;;;;;;;;
2022/06/13 00:27:15;;;;;;;4.53;2.00;;;;;;;21.04;83.39;98660.03;4844336;29;20176;-90
2022/06/13 00:30:01;;;;;;;4.90;1.90;;;;;;;21.02;84.07;98672.66;4844911;29;20284;-89
2022/06/13 00:33:02;;;;;;;4.17;1.97;;;;;;;21.08;83.62;98672.91;4828274;29;20193;-93
2022/06/13 00:35:38;;;;;;;;;;;;;;;;;;;;;
2022/06/13 00:38:04;;;;;;;3.07;1.80;;;;;;;21.10;83.65;98686.91;4844758;29;20195;-91
2022/06/13 00:40:37;;;;;;;5.40;2.40;;;;;;;21.20;82.98;98679.63;4843500;29;20275;-91
2022/06/13 00:43:03;;;;;;;3.23;1.43;;;;;;;21.04;84.06;98681.34;4844276;29;20196;-91
2022/06/13 00:45:46;;;;;;;3.27;1.80;;;;;;;21.09;83.89;98684.41;4844822;29;20189;-94
2022/06/13 00:48:19;;;;;;;7.50;2.60;;;;;;;21.03;84.09;98680.50;4843524;29;20189;-92
2022/06/13 00:50:52;;;;;;;6.10;1.90;;;;;;;21.02;84.40;98678.81;4843497;29;20201;-90
2022/06/13 00:53:34;;;;;;;8.50;2.33;;;;;;;20.86;85.19;98678.72;4844367;29;20276;-93
2022/06/13 00:56:22;;;;;;;4.20;1.70;;;;;;;20.75;85.62;98674.47;4827709;29;20266;-93
2022/06/13 00:58:55;;;;;;;4.53;2.17;;;;;;;20.86;85.38;98673.38;4844758;29;20264;-93
2022/06/13 01:01:33;;;;;;;;;;;;;;;;;;;;;
2022/06/13 01:04:03;;;;;;;8.07;2.40;;;;;;;20.62;86.43;98671.38;4843800;29;20185;-91
2022/06/13 01:06:39;;;;;;;3.17;1.53;;;;;;;20.65;86.36;98668.41;4844321;29;20180;-91
2022/06/13 01:09:08;;;;;;;4.43;1.97;;;;;;;20.67;85.87;98666.47;4843813;29;20208;-92
2022/06/13 01:11:47;;;;;;;4.13;2.20;;;;;;;20.94;84.24;98672.63;4842852;29;20185;-93
2022/06/13 01:14:24;;;;;;;4.40;1.77;;;;;;;20.68;84.70;98662.78;4843727;29;20180;-92
2022/06/13 01:17:38;;;;;;;5.33;2.40;;;;;;;20.71;84.47;98664.28;4843982;29;20203;-93
2022/06/13 01:20:22;;;;;;;3.43;1.60;;;;;;;20.69;84.05;98663.63;4842482;29;20196;-89
2022/06/13 01:23:33;;;;;;;3.20;1.83;;;;;;;20.72;83.67;98655.31;4827603;29;20212;-92
2022/06/13 01:26:29;;;;;;;3.40;1.87;;;;;;;20.78;82.94;98654.69;4844092;29;20165;-92
2022/06/13 01:29:25;;;;;;;2.40;1.50;;;;;;;20.72;83.67;98665.97;4843705;29;20189;-93
2022/06/13 01:35:09;;;;;;;2.87;1.37;;;;;;;20.87;81.82;98668.91;4840100;29;20199;-92
2022/06/13 01:38:28;;;;;;;3.07;1.67;;;;;;;20.90;81.19;98658.78;4843502;29;20184;-92
2022/06/13 01:41:12;;;;;;;2.53;1.50;;;;;;;20.89;81.52;98662.41;4832213;29;20201;-92
2022/06/13 01:44:17;;;;;;;4.77;1.60;;;;;;;20.89;80.77;98656.25;4843781;29;20169;-91
2022/06/13 01:46:52;;;;;;;2.47;1.10;;;;;;;20.83;81.18;98655.06;4842283;29;20240;-93
2022/06/13 01:50:05;;;;;;;2.83;1.57;;;;;;;20.97;80.40;98658.97;4827484;29;20276;-92
2022/06/13 01:53:01;;;;;;;2.40;1.33;;;;;;;20.87;80.54;98652.91;4843560;29;20196;-93
2022/06/13 01:55:38;;;;;;;2.87;1.40;;;;;;;20.86;80.78;98662.72;4843067;29;20185;-92
2022/06/13 01:58:23;;;;;;;6.00;1.60;;;;;;;20.98;80.07;98656.16;4826843;29;20204;-91
2022/06/13 02:01:06;;;;;;;3.17;1.20;;;;;;;20.82;80.55;98661.38;4843696;29;20256;-91
2022/06/13 02:03:41;;;;;;;3.07;1.50;;;;;;;20.73;80.62;98656.97;4843445;29;20256;-93
2022/06/13 02:09:31;;;;;;;2.17;1.00;;;;;;;20.92;79.19;98656.78;4840374;29;20236;-91
2022/06/13 02:12:10;;;;;;;6.73;1.37;;;;;;;20.92;78.03;98661.28;4857217;29;20247;-92
2022/06/13 02:14:47;;;;;;;1.77;1.20;;;;;;;20.82;78.38;98651.56;4843108;29;20327;-90
2022/06/13 02:17:52;;;;;;;3.67;1.50;;;;;;;20.99;77.60;98660.47;4841919;29;20253;-94
2022/06/13 02:20:22;;;;;;;5.27;1.20;;;;;;;20.82;77.98;98659.56;4835309;29;20189;-90
2022/06/13 02:22:53;;;;;;;3.43;1.30;;;;;;;20.88;77.95;98660.78;4842999;29;20188;-93
2022/06/13 02:25:44;;;;;;;2.60;1.23;;;;;;;20.90;77.26;98658.78;4843253;29;20189;-90
2022/06/13 02:28:21;;;;;;;4.40;1.20;;;;;;;20.82;77.53;98662.22;4842981;29;20161;-91
2022/06/13 02:30:57;;;;;;;6.33;1.50;;;;;;;20.72;77.79;98656.16;4841654;29;20212;-92
2022/06/13 02:33:49;;;;;;;2.33;1.33;;;;;;;20.94;77.59;98659.31;4843124;29;20177;-92
2022/06/13 02:36:40;;;;;;;3.13;1.23;;;;;;;21.04;76.84;98654.69;4843125;29;20173;-91
2022/06/13 02:39:13;;;;;;;3.20;1.17;;;;;;;21.25;75.90;98652.50;4842128;29;20197;-91
2022/06/13 02:42:25;;;;;;;1.93;0.90;;;;;;;21.17;76.24;98663.13;4826723;29;20595;-93
2022/06/13 02:48:49;;;;;;;4.10;1.57;;;;;;;21.19;75.93;98661.13;4822841;29;20201;-92
2022/06/13 02:51:50;;;;;;;2.43;1.20;;;;;;;21.12;76.07;98663.59;4809578;29;20233;-90
2022/06/13 02:55:10;;;;;;;2.77;1.00;;;;;;;20.94;77.15;98665.44;4823692;29;20196;-91
2022/06/13 02:58:03;;;;;;;2.60;1.33;;;;;;;21.10;76.18;98667.41;4789967;30;20638;-93
2022/06/13 03:00:54;;;;;;;2.93;1.63;;;;;;;21.16;76.29;98675.63;4790224;29;20608;-93
2022/06/13 03:03:51;;;;;;;3.87;1.37;;;;;;;21.18;75.49;98670.13;4799261;29;20201;-91
2022/06/13 03:07:24;;;;;;;;;;;;;;;;;;;;;
2022/06/13 03:10:02;;;;;;;4.20;1.40;;;;;;;20.95;76.88;98677.78;4846898;29;20539;-91
2022/06/13 03:12:38;;;;;;;6.40;1.57;;;;;;;21.09;76.28;98666.59;4845852;29;20513;-92
2022/06/13 03:15:16;;;;;;;2.17;1.17;;;;;;;21.21;75.63;98678.63;4846306;29;20189;-91
2022/06/13 03:17:57;;;;;;;2.53;1.20;;;;;;;21.30;75.31;98671.53;4846008;29;20600;-91
2022/06/13 03:21:07;;;;;;;2.80;1.37;;;;;;;21.37;74.50;98662.72;4829497;29;20169;-92
2022/06/13 03:23:59;;;;;;;2.47;1.27;;;;;;;21.11;75.94;98669.09;4829246;29;20203;-92
2022/06/13 03:26:33;;;;;;;1.97;0.97;;;;;;;21.22;75.88;98672.34;4845726;29;20197;-91
2022/06/13 03:29:42;;;;;;;2.63;1.30;;;;;;;21.33;75.26;98673.88;4845356;29;20165;-90
2022/06/13 03:35:22;;;;;;;3.93;1.83;;;;;;;21.31;75.72;98673.19;4808586;29;20204;-89
2022/06/13 03:38:10;;;;;;;2.33;1.30;;;;;;;21.46;74.53;98674.28;4859853;29;20200;-91
2022/06/13 03:40:59;;;;;;;4.33;1.60;;;;;;;21.43;74.89;98680.72;4845598;29;20165;-93
2022/06/13 03:43:44;;;;;;;3.07;1.47;;;;;;;21.16;76.11;98675.63;4844366;29;20207;-91
2022/06/13 03:46:43;;;;;;;3.43;1.40;;;;;;;21.03;76.41;98672.50;4818165;29;20194;-92
2022/06/13 03:49:33;;;;;;;4.30;2.00;;;;;;;20.98;76.97;98672.16;4809632;29;20186;-94
2022/06/13 03:52:02;;;;;;;3.80;1.47;;;;;;;21.07;76.68;98665.09;4825024;29;20184;-92
2022/06/13 03:54:53;;;;;;;3.40;1.77;;;;;;;20.88;77.42;98665.25;4825781;29;20190;-90
2022/06/13 03:57:34;;;;;;;3.67;1.60;;;;;;;21.07;77.18;98675.75;4819993;29;20213;-93
2022/06/13 04:03:34;;;;;;;;;;;;;;;;;;;;;
2022/06/13 04:06:17;;;;;;;2.50;1.40;;;;;;;21.10;76.79;98667.41;4827285;29;20174;-91
2022/06/13 04:08:42;;;;;;;5.03;2.00;;;;;;;21.11;76.64;98666.41;4841629;29;20178;-92
2022/06/13 04:11:50;;;;;;;;;;;;;;;;;;;;;
2022/06/13 04:15:06;;;;;;;3.90;1.90;;;;;;;21.16;76.65;98664.97;4827527;29;20194;-93
2022/06/13 04:18:11;;;;;;;7.43;1.90;;;;;;;21.34;76.40;98662.19;4826450;29;20209;-92
2022/06/13 04:21:03;;;;;;;3.47;1.67;;;;;;;21.31;76.08;98665.19;4825529;29;20182;-90
2022/06/13 04:23:56;;;;;;;3.20;1.63;;;;;;;21.34;76.24;98664.88;4840649;29;20182;-91
2022/06/13 04:27:03;;;;;;;3.77;1.87;;;;;;;21.11;77.57;98666.41;4810401;29;20637;-91
2022/06/13 04:29:45;;;;;;;3.03;1.70;;;;;;;21.17;77.02;98669.28;4825405;29;20711;-91
2022/06/13 04:32:25;;;;;;;;;;;;;;;;;;;;;
2022/06/13 04:34:53;;;;;;;5.20;1.57;;;;;;;21.38;76.47;98669.72;4826721;29;20577;-92
2022/06/13 04:37:29;;;;;;;3.60;2.23;;;;;;;21.43;76.26;98677.25;4826289;29;20206;-94
2022/06/13 04:40:20;;;;;;;6.00;1.80;;;;;;;21.56;75.96;98676.81;4825240;29;20268;-91
2022/06/13 04:42:55;;;;;;;8.33;2.77;;;;;;;21.57;75.61;98678.47;4826317;29;20171;-94
2022/06/13 04:48:31;;;;;;;4.33;2.00;;;;;;;21.38;76.84;98667.06;4825794;29;20692;-90
2022/06/13 04:51:31;;;;;;;4.13;1.60;;;;;;;21.43;76.14;98675.41;4810205;29;20217;-92
2022/06/13 04:54:32;;;;;;;2.87;1.70;;;;;;;21.48;76.24;98684.78;4770459;30;20204;-90
2022/06/13 04:57:22;;;;;;;3.30;1.83;;;;;;;21.57;76.51;98673.13;4745469;30;20310;-89
2022/06/13 04:59:57;;;;;;;4.00;1.53;;;;;;;21.84;75.90;98675.56;4770435;30;20202;-92
2022/06/13 05:03:03;;;;;;;3.87;1.73;;;;;;;22.00;75.68;98675.63;4770238;30;20184;-92
2022/06/13 05:06:06;;;;;;;3.77;1.70;;;;;;;22.07;74.08;98689.97;4803241;29;20208;-92
2022/06/13 05:09:12;;;;;;;;;;;;;;;;;;;;;
2022/06/13 05:11:46;;;;;;;4.03;1.97;;;;;;;21.95;75.83;98709.97;4825495;29;20203;-94
2022/06/13 05:14:34;;;;;;;6.13;2.13;;;;;;;22.26;74.84;98711.06;4825826;29;20170;-93
2022/06/13 05:17:27;;;;;;;3.33;1.87;;;;;;;22.29;74.38;98713.41;4787543;30;20191;-93
2022/06/13 05:27:05;;;;;;;3.73;1.70;;;;;;;22.74;72.42;98707.63;4787675;30;20213;-93
2022/06/13 05:30:25;;;;;;;3.80;2.10;;;;;;;22.83;72.59;98703.09;4746746;30;20226;-92
2022/06/13 05:36:24;;;;;;;5.63;2.03;;;;;;;23.31;70.86;98689.63;4769103;30;20635;-94
2022/06/13 05:39:59;;;;;;;2.77;1.50;;;;;;;23.46;70.01;98687.94;4734482;30;20201;-91
2022/06/13 05:47:03;;;;;;;;;;;;;;;;;;;;;
2022/06/13 05:50:02;;;;;;;4.63;1.97;;;;;;;24.16;67.17;98687.97;4692428;30;20253;-92
2022/06/13 05:52:42;;;;;;;2.37;1.70;;;;;;;24.35;64.69;98688.31;4682180;30;20200;-92
2022/06/13 05:58:47;;;;;;;3.93;1.70;;;;;;;24.44;64.83;98686.44;4678186;30;20332;-92
2022/06/13 06:12:35;;;;;;;2.63;1.40;;;;;;;24.98;65.56;98689.84;4898683;29;20218;-94
2022/06/13 06:15:29;;;;;;;;;;;;;;;;;;;;;
2022/06/13 06:18:22;;;;;;;3.17;1.83;;;;;;;24.79;64.84;98688.50;4805530;29;20194;-92
2022/06/13 06:21:34;;;;;;;6.87;1.83;;;;;;;24.91;65.30;98697.78;4804181;29;20274;-94
2022/06/13 06:31:56;;;;;;;;;;;;;;;;;;;;;
2022/06/13 07:18:27;;;;;;;3.28;1.88;;;;;;;26.50;62.86;98740.00;5819082;24;20659;-93
2022/06/13 07:59:11;;;;;;;2.80;1.70;;;;;;;26.55;62.45;98766.31;5069618;28;20187;-94
2022/06/13 08:02:28;;;;;;;3.63;2.33;;;;;;;26.30;63.29;98770.38;4951257;29;20204;-93
2022/06/13 08:08:53;;;;;;;3.80;2.13;;;;;;;26.42;63.81;98775.06;4951472;28;20616;-93
2022/06/13 08:13:11;;;;;;;;;;;;;;;;;;;;;
2022/06/13 08:16:08;;;;;;;;;;;;;;;;;;;;;
2022/06/13 08:18:50;;;;;;;7.72;2.28;;;;;;;26.51;63.06;98781.19;4975290;28;20656;-94
2022/06/13 08:22:00;;;;;;;2.92;1.58;;;;;;;26.51;62.72;98778.47;4996376;28;20195;-93
2022/06/13 08:24:51;;;;;;;4.30;2.05;;;;;;;26.45;62.79;98779.22;5063924;28;20196;-94
2022/06/13 08:27:38;;;;;;;4.88;2.15;;;;;;;26.48;62.55;98785.06;5072208;28;20181;-93
2022/06/13 08:31:09;;;;;;;;;;;;;;;;;;;;;
2022/06/13 08:40:19;;;;;;;;;;;;;;;;;;;;;
2022/06/13 08:44:09;;;;;;;4.65;1.75;;;;;;;26.74;61.29;98774.59;5009059;28;20183;-94
2022/06/13 08:50:53;;;;;;;;;;;;;;;;;;;;;
2022/06/13 08:53:44;;;;;;;3.17;1.67;;;;;;;27.02;59.17;98777.34;4969301;28;20654;-94
2022/06/13 08:56:55;;;;;;;6.18;1.98;;;;;;;26.83;59.76;98776.16;4953400;28;20188;-92
2022/06/13 09:07:38;;;;;;;;;;;;;;;;;;;;;
2022/06/13 09:10:38;;;;;;;;;;;;;;;;;;;;;
2022/06/13 09:13:41;;;;;;;3.63;2.00;;;;;;;27.49;62.02;98774.03;4995616;28;20156;-94
2022/06/13 09:17:01;;;;;;;4.55;2.20;;;;;;;28.02;62.60;98776.03;5035159;28;20170;-93
2022/06/13 09:19:58;;;;;;;;;;;;;;;;;;;;;
2022/06/13 09:22:47;;;;;;;7.15;1.98;;;;;;;28.60;55.70;98785.38;5034797;28;20220;-93
2022/06/13 09:39:38;;;;;;;3.55;1.40;;;;;;;29.75;49.16;98756.13;4811681;29;20690;-93
2022/06/13 09:42:35;;;;;;;2.75;1.40;;;;;;;29.60;50.23;98771.78;4770231;30;20679;-92
2022/06/13 09:48:41;;;;;;;3.60;1.70;;;;;;;29.81;49.44;98768.00;4770800;30;20661;-93
2022/06/13 09:52:15;;;;;;;5.68;1.80;;;;;;;30.02;49.98;98778.56;4771319;30;20203;-93
2022/06/13 09:58:41;;;;;;;;;;;;;;;;;;;;;
2022/06/13 10:02:13;;;;;;;4.60;1.83;;;;;;;29.45;49.54;98757.69;4771343;29;20236;-95
2022/06/13 10:12:37;;;;;;;4.03;1.80;;;;;;;30.01;48.32;98760.66;4998530;28;20214;-92
2022/06/13 10:16:09;;;;;;;;;;;;;;;;;;;;;
2022/06/13 10:19:16;;;;;;;3.47;1.80;;;;;;;29.61;47.87;98751.81;4994707;28;20191;-93
2022/06/13 10:26:03;;;;;;;4.65;2.40;;;;;;;28.70;50.53;98751.78;4935621;29;20628;-94
2022/06/13 10:31:55;;;;;;;5.13;1.98;;;;;;;29.02;51.13;98767.19;4936502;29;20257;-91
2022/06/13 10:35:02;;;;;;;3.30;1.90;;;;;;;29.03;50.51;98764.31;4977489;28;20192;-90
2022/06/13 10:38:04;;;;;;;3.58;1.98;;;;;;;29.03;51.82;98763.47;5008092;28;20203;-92
2022/06/13 10:41:41;;;;;;;;;;;;;;;;;;;;;
2022/06/13 10:47:40;;;;;;;4.53;2.08;;;;;;;29.16;50.60;98750.81;4956090;28;20654;-91
2022/06/13 11:12:17;;;;;;;4.88;2.05;;;;;;;29.59;49.36;98748.50;5032455;28;20305;-92
2022/06/13 11:29:35;;;;;;;4.63;2.30;;;;;;;29.66;50.79;98745.78;4856758;29;20198;-90
2022/06/13 11:32:49;;;;;;;;;;;;;;;;;;;;;
2022/06/13 11:43:05;;;;;;;5.35;2.28;;;;;;;30.00;50.13;98725.75;4896834;29;20198;-90
2022/06/13 11:45:49;;;;;;;;;;;;;;;;;;;;;
2022/06/13 11:52:22;;;;;;;;;;;;;;;;;;;;;
2022/06/13 12:02:44;;;;;;;;;;;;;;;;;;;;;
2022/06/13 12:09:31;;;;;;;;;;;;;;;;;;;;;
2022/06/13 12:13:43;;;;;;;;;;;;;;;;;;;;;
2022/06/13 12:16:42;;;;;;;;;;;;;;;;;;;;;
2022/06/13 12:19:24;;;;;;;3.25;1.92;;;;;;;30.23;49.88;98701.72;4991227;28;20212;-91
2022/06/13 12:23:00;;;;;;;;;;;;;;;;;;;;;
2022/06/13 12:33:20;;;;;;;;;;;;;;;;;;;;;
2022/06/13 12:39:49;;;;;;;;;;;;;;;;;;;;;
2022/06/13 12:43:11;;;;;;;3.25;2.15;;;;;;;30.30;52.89;98680.88;4976385;28;20211;-91
2022/06/13 12:50:36;;;;;;;;;;;;;;;;;;;;;
2022/06/13 12:53:39;;;;;;;3.72;1.85;;;;;;;30.62;51.05;98670.91;5034590;28;20221;-90
2022/06/13 12:57:13;;;;;;;;;;;;;;;;;;;;;
2022/06/13 13:03:22;;;;;;;5.47;2.58;;;;;;;30.90;48.25;98666.72;5062404;28;20740;-89
2022/06/13 13:06:29;;;;;;;5.15;2.58;;;;;;;31.15;48.89;98661.31;5108963;28;20174;-89
2022/06/13 13:09:31;;;;;;;8.70;2.97;;;;;;;31.34;48.24;98662.16;5076267;28;20184;-90
2022/06/13 13:16:21;;;;;;;;;;;;;;;;;;;;;
2022/06/13 13:19:35;;;;;;;;;;;;;;;;;;;;;
2022/06/13 13:27:19;;;;;;;5.03;2.80;;;;;;;31.54;45.42;98643.84;4974930;28;20193;-90
2022/06/13 13:30:02;;;;;;;3.65;2.33;;;;;;;31.84;43.87;98636.56;4982427;28;20182;-89
2022/06/13 13:33:14;;;;;;;;;;;;;;;;;;;;;
2022/06/13 13:47:25;;;;;;;5.07;2.63;;;;;;;32.47;39.06;98615.22;4975293;28;20804;-91
2022/06/13 17:12:19;;;;;;;;;;;;;;;;;;;;;
2022/06/13 17:38:36;;;;;;;;;;;;;;;;;;;;;
2022/06/13 17:48:01;;;;;;;;;;;;;;;;;;;;;
2022/06/13 17:50:55;;;;;;;4.63;2.80;;;;;;;28.81;53.53;98635.19;4718788;30;20186;-90
2022/06/13 17:54:21;;;;;;;;;;;;;;;;;;;;;
2022/06/13 18:00:46;;;;;;;;;;;;;;;;;;;;;
2022/06/13 18:03:54;;;;;;;;;;;;;;;;;;;;;
2022/06/13 18:06:52;;;;;;;4.55;2.95;;;;;;;28.23;55.56;98645.72;4717178;30;20680;-89
2022/06/13 18:12:54;;;;;;;6.35;3.55;;;;;;;28.09;56.69;98651.28;4777144;30;20195;-90
2022/06/13 18:15:28;;;;;;;5.68;3.20;;;;;;;28.12;56.80;98657.06;4773865;30;20605;-89
2022/06/13 18:18:08;;;;;;;;;;;;;;;;;;;;;
2022/06/13 18:20:44;;;;;;;5.63;3.10;;;;;;;27.99;57.72;98646.22;4806876;29;20561;-89
2022/06/13 18:23:12;;;;;;;5.43;3.17;;;;;;;27.87;58.39;98655.94;4792029;29;20182;-88
2022/06/13 18:25:39;;;;;;;8.85;3.55;;;;;;;27.79;58.96;98665.03;4807787;29;20251;-89
2022/06/13 18:28:12;;;;;;;5.47;3.13;;;;;;;27.69;59.42;98667.28;4807352;29;20217;-89
2022/06/13 18:30:40;;;;;;;14.27;4.22;;;;;;;27.71;59.24;98678.69;4791373;29;20599;-89
2022/06/13 18:33:35;;;;;;;;;;;;;;;;;;;;;
2022/06/13 18:36:17;;;;;;;5.85;3.40;;;;;;;27.65;59.47;98684.84;4807532;29;20568;-89
2022/06/13 18:38:47;;;;;;;6.30;3.05;;;;;;;27.57;59.15;98689.59;4791457;29;20178;-89
2022/06/13 18:44:34;;;;;;;5.65;3.70;;;;;;;27.41;60.09;98707.72;4794235;29;20654;-89
2022/06/13 18:47:23;;;;;;;9.93;3.72;;;;;;;27.42;60.33;98709.38;4809348;29;20182;-89
2022/06/13 18:49:59;;;;;;;6.20;3.50;;;;;;;27.26;60.76;98723.13;4824685;29;20233;-89
2022/06/13 18:52:41;;;;;;;7.35;4.00;;;;;;;27.13;60.56;98731.09;4808521;29;20174;-88
2022/06/13 18:55:09;;;;;;;7.95;3.70;;;;;;;27.10;60.72;98734.16;4808098;29;20190;-89
2022/06/13 18:57:42;;;;;;;6.85;3.08;;;;;;;27.05;60.43;98731.22;4825042;29;20641;-90
2022/06/13 19:00:20;;;;;;;7.25;3.33;;;;;;;26.94;61.30;98737.13;4824613;29;20669;-90
2022/06/13 19:03:16;;;;;;;8.57;3.90;;;;;;;26.86;61.75;98741.84;4808716;29;20632;-91
2022/06/13 19:05:49;;;;;;;7.93;3.60;;;;;;;26.80;61.80;98751.53;4765757;29;20606;-91
2022/06/13 19:08:37;;;;;;;7.40;3.47;;;;;;;26.77;61.31;98757.28;4806959;29;20167;-91
2022/06/13 19:11:44;;;;;;;6.75;3.53;;;;;;;26.76;61.07;98777.06;4808035;29;20192;-91
2022/06/13 19:14:09;;;;;;;6.88;2.72;;;;;;;26.62;61.56;98772.59;4750963;30;20564;-91
2022/06/13 19:17:03;;;;;;;7.93;3.80;;;;;;;26.35;62.33;98781.41;4732008;30;20206;-92
2022/06/13 19:19:36;;;;;;;7.05;3.50;;;;;;;26.40;62.01;98793.25;4786234;29;20289;-91
2022/06/13 19:22:06;;;;;;;7.15;4.13;;;;;;;26.37;61.79;98788.25;4809335;29;20197;-91
2022/06/13 19:25:11;;;;;;;6.77;4.03;;;;;;;26.41;61.57;98792.25;4824272;29;20185;-92
2022/06/13 19:28:01;;;;;;;5.78;3.40;;;;;;;26.35;61.70;98776.84;4823288;29;20208;-92
2022/06/13 19:30:33;;;;;;;7.47;4.20;;;;;;;26.27;62.01;98776.97;4800800;29;20554;-91
2022/06/13 19:33:38;;;;;;;6.53;3.60;;;;;;;26.30;61.13;98781.13;4823820;29;20182;-91
2022/06/13 19:36:34;;;;;;;8.48;3.63;;;;;;;26.30;60.89;98790.03;4824519;29;20181;-91
2022/06/13 19:39:08;;;;;;;5.20;3.35;;;;;;;26.23;60.94;98781.88;4808098;29;20186;-91
2022/06/13 19:42:45;;;;;;;;;;;;;;;;;;;;;
2022/06/13 19:48:23;;;;;;;6.63;3.10;;;;;;;26.07;60.36;98787.44;4813994;29;20217;-90
2022/06/13 19:51:47;;;;;;;7.33;2.50;;;;;;;25.93;60.64;98782.91;4808442;29;20628;-92
2022/06/13 19:57:25;;;;;;;5.57;3.17;;;;;;;25.86;60.12;98790.06;4751774;29;20227;-90
2022/06/13 20:00:00;;;;;;;13.20;3.23;;;;;;;25.74;61.02;98788.00;4823501;29;20198;-89
2022/06/13 20:03:13;;;;;;;4.40;2.58;;;;;;;25.79;60.03;98782.91;4824274;29;20181;-91
2022/06/13 20:08:36;;;;;;;8.67;2.60;;;;;;;25.30;59.47;98775.34;4823966;29;20173;-90
2022/06/13 20:11:39;;;;;;;;;;;;;;;;;;;;;
2022/06/13 20:14:12;;;;;;;5.40;1.60;;;;;;;25.10;56.14;98779.59;4816629;29;20190;-92
2022/06/13 20:17:14;;;;;;;;;;;;;;;;;;;;;
2022/06/13 20:20:40;;;;;;;;;;;;;;;;;;;;;
2022/06/13 20:23:35;;;;;;;3.27;1.17;;;;;;;24.83;54.62;98780.97;4780788;29;20204;-92
2022/06/13 20:26:46;;;;;;;6.27;1.87;;;;;;;24.89;53.06;98779.44;4824485;29;20235;-91
2022/06/13 20:48:08;;;;;;;;;;;;;;;;;;;;;
2022/06/13 20:51:00;;;;;;;;;;;;;;;;;;;;;
2022/06/13 20:54:18;;;;;;;;;;;;;;;;;;;;;
2022/06/13 20:57:42;;;;;;;6.90;2.40;;;;;;;24.92;55.59;98795.16;4493803;31;20199;-91
2022/06/13 21:00:20;;;;;;;4.43;2.30;;;;;;;24.86;56.32;98791.34;4502199;31;20766;-90
2022/06/13 21:02:52;;;;;;;3.57;2.00;;;;;;;24.76;57.10;98780.00;4502465;31;20309;-91
2022/06/13 21:05:54;;;;;;;;;;;;;;;;;;;;;
2022/06/13 21:10:05;;;;;;;4.10;2.30;;;;;;;24.60;57.38;98785.47;4551055;31;20208;-92
2022/06/13 21:14:24;;;;;;;6.70;2.47;;;;;;;24.50;57.56;98767.94;4722371;30;20196;-91
2022/06/13 21:17:04;;;;;;;4.23;1.90;;;;;;;24.37;58.71;98773.91;4756427;30;20190;-91
2022/06/13 21:19:31;;;;;;;4.17;1.90;;;;;;;24.39;58.51;98779.91;4768920;29;20648;-91
2022/06/13 21:22:11;;;;;;;4.13;2.27;;;;;;;24.36;58.66;98774.91;4811111;29;20594;-91
2022/06/13 21:24:38;;;;;;;4.70;1.97;;;;;;;24.26;59.08;98777.81;4812214;29;20181;-91
2022/06/13 21:27:08;;;;;;;4.30;2.17;;;;;;;24.24;58.69;98779.00;4826480;29;20208;-90
2022/06/13 21:29:39;;;;;;;5.37;1.90;;;;;;;24.14;59.05;98773.00;4826422;29;20177;-91
2022/06/13 21:32:10;;;;;;;3.47;1.93;;;;;;;24.11;59.38;98768.81;4826921;29;20279;-91
2022/06/13 21:34:37;;;;;;;5.50;1.57;;;;;;;24.04;58.65;98769.66;4826294;29;20201;-90
2022/06/13 21:37:12;;;;;;;6.03;1.70;;;;;;;23.85;58.46;98771.75;4826598;29;20178;-91
2022/06/13 21:39:39;;;;;;;4.30;2.47;;;;;;;23.71;58.63;98772.50;4810480;29;20257;-90
2022/06/13 21:42:09;;;;;;;3.73;2.20;;;;;;;23.65;58.70;98772.34;4826182;29;20190;-90
2022/06/13 21:44:37;;;;;;;4.97;1.60;;;;;;;23.46;60.45;98773.56;4810424;29;20577;-90
2022/06/13 21:47:05;;;;;;;6.23;2.17;;;;;;;23.47;60.69;98769.88;4810104;29;20186;-90
2022/06/13 21:49:34;;;;;;;3.40;2.07;;;;;;;23.41;61.28;98769.72;4810317;29;20670;-91
2022/06/13 21:52:04;;;;;;;6.80;2.20;;;;;;;23.42;61.29;98771.41;4826126;29;20186;-90
2022/06/13 21:54:30;;;;;;;5.17;2.93;;;;;;;23.45;61.73;98782.59;4810010;29;20652;-89
2022/06/13 21:56:56;;;;;;;6.03;2.97;;;;;;;23.39;61.47;98775.25;4826466;29;20235;-90
2022/06/13 21:59:23;;;;;;;5.23;2.90;;;;;;;23.15;62.34;98781.44;4825808;29;20237;-89
2022/06/13 22:01:50;;;;;;;4.97;2.93;;;;;;;23.08;63.03;98779.59;4825880;29;20182;-90
2022/06/13 22:04:17;;;;;;;4.67;3.20;;;;;;;23.23;62.28;98778.75;4825866;29;20238;-90
2022/06/13 22:06:46;;;;;;;7.57;2.40;;;;;;;23.20;62.43;98770.22;4826093;29;20231;-89
2022/06/13 22:09:13;;;;;;;9.40;3.87;;;;;;;23.17;62.13;98766.03;4826016;29;20620;-89
2022/06/13 22:11:39;;;;;;;5.83;2.93;;;;;;;23.08;62.85;98759.06;4826028;29;20189;-90
2022/06/13 22:14:05;;;;;;;7.27;2.90;;;;;;;23.08;62.67;98747.53;4825994;29;20216;-89
2022/06/13 22:16:32;;;;;;;5.23;3.10;;;;;;;23.07;62.34;98746.69;4825954;29;20182;-90
2022/06/13 22:18:59;;;;;;;6.60;3.93;;;;;;;23.03;61.86;98744.53;4809533;29;20197;-89
2022/06/13 22:21:26;;;;;;;12.60;4.70;;;;;;;22.81;61.85;98758.53;4809540;29;20201;-89
2022/06/13 22:23:53;;;;;;;8.73;4.37;;;;;;;22.75;62.98;98756.53;4826069;29;20193;-89
2022/06/13 22:26:20;;;;;;;9.10;3.30;;;;;;;22.88;62.60;98756.88;4825494;29;20715;-90
2022/06/13 22:28:47;;;;;;;6.07;3.93;;;;;;;22.84;62.67;98750.19;4826004;29;20537;-90
2022/06/13 22:31:14;;;;;;;7.03;3.57;;;;;;;22.69;63.91;98760.72;4825448;29;20206;-89
2022/06/13 22:33:39;;;;;;;5.40;3.70;;;;;;;22.73;64.15;98748.69;4809467;29;20645;-90
2022/06/13 22:36:05;;;;;;;5.10;3.20;;;;;;;22.75;64.23;98743.16;4809359;29;20189;-90
2022/06/13 22:38:33;;;;;;;10.80;3.63;;;;;;;22.72;63.87;98736.31;4810168;29;20515;-90
2022/06/13 22:41:14;;;;;;;8.20;3.10;;;;;;;22.63;64.35;98743.53;4809176;29;20621;-90
2022/06/13 22:43:41;;;;;;;6.37;4.10;;;;;;;22.64;65.08;98745.16;4825754;29;20170;-89
2022/06/13 22:46:08;;;;;;;5.77;3.60;;;;;;;22.58;64.42;98745.00;4825757;29;20174;-90
2022/06/13 22:51:27;;;;;;;8.03;4.33;;;;;;;22.23;66.80;98751.44;4825236;29;20207;-90
2022/06/13 22:55:03;;;;;;;9.43;5.57;;;;;;;22.01;66.53;98763.53;4825438;29;20179;-90
2022/06/13 22:57:41;;;;;;;7.47;4.27;;;;;;;21.49;68.41;98777.94;4820423;29;20667;-91
2022/06/13 23:00:14;;;;;;;7.60;4.47;;;;;;;21.69;68.06;98782.06;4809412;29;20205;-90
2022/06/13 23:02:39;;;;;;;7.37;4.13;;;;;;;21.89;67.56;98785.34;4808852;29;20281;-89
2022/06/13 23:05:08;;;;;;;7.17;3.40;;;;;;;21.97;67.45;98775.53;4825537;29;20209;-90
2022/06/13 23:07:35;;;;;;;6.73;3.50;;;;;;;21.86;67.07;98774.97;4825516;29;20185;-90
2022/06/13 23:10:03;;;;;;;7.40;3.00;;;;;;;21.86;67.18;98764.31;4825176;29;20186;-90
2022/06/13 23:12:30;;;;;;;4.07;2.53;;;;;;;21.86;67.04;98761.66;4825166;29;20190;-90
2022/06/13 23:14:56;;;;;;;4.13;2.40;;;;;;;21.82;67.01;98761.13;4825158;29;20181;-90
2022/06/13 23:17:23;;;;;;;4.40;2.83;;;;;;;21.78;67.42;98750.91;4825102;29;20186;-90
2022/06/13 23:19:50;;;;;;;6.23;3.30;;;;;;;21.90;66.92;98758.50;4808503;29;20300;-90
2022/06/13 23:22:17;;;;;;;5.47;3.33;;;;;;;22.00;66.59;98756.53;4825127;29;20181;-90
2022/06/13 23:24:44;;;;;;;5.57;2.27;;;;;;;22.05;66.20;98756.06;4808828;29;20193;-90
2022/06/13 23:27:10;;;;;;;3.37;2.10;;;;;;;22.02;65.54;98751.03;4824729;29;20182;-90
2022/06/13 23:29:37;;;;;;;4.03;2.23;;;;;;;21.99;66.09;98746.84;4825177;29;20546;-90
2022/06/13 23:32:03;;;;;;;7.83;2.10;;;;;;;22.08;65.45;98753.06;4808414;29;20766;-90
2022/06/13 23:34:28;;;;;;;4.77;1.60;;;;;;;22.00;64.50;98747.69;4824589;29;20264;-90
2022/06/13 23:36:54;;;;;;;2.63;1.57;;;;;;;21.88;63.00;98741.81;4824614;29;20664;-89
2022/06/13 23:39:20;;;;;;;2.70;1.57;;;;;;;21.64;62.29;98741.69;4824732;29;20270;-90
2022/06/13 23:41:46;;;;;;;3.43;1.50;;;;;;;21.43;61.55;98752.72;4824540;29;20178;-89
2022/06/13 23:44:14;;;;;;;4.63;1.37;;;;;;;21.57;60.21;98753.13;4824638;29;20192;-90
2022/06/13 23:46:41;;;;;;;2.97;1.30;;;;;;;21.67;60.10;98748.53;4824479;29;20219;-90
2022/06/13 23:49:11;;;;;;;2.87;1.40;;;;;;;21.81;60.27;98756.75;4824438;29;20193;-90
2022/06/13 23:51:38;;;;;;;2.70;1.23;;;;;;;22.01;60.35;98758.19;4808494;29;20185;-89
2022/06/13 23:54:06;;;;;;;4.43;1.40;;;;;;;22.13;59.72;98758.75;4808079;29;20178;-90